createdAt,value
2018-05-23T00:00:55.253Z,6.30
2018-05-23T00:03:24.976Z,6.73
2018-05-23T00:05:55.484Z,6.50
2018-05-23T00:08:25.207Z,5.90
2018-05-23T00:10:55.712Z,5.77
2018-05-23T00:13:25.446Z,5.70
2018-05-23T00:15:55.955Z,5.30
2018-05-23T00:18:25.688Z,6.00
2018-05-23T00:20:56.188Z,6.53
2018-05-23T00:23:25.909Z,5.10
2018-05-23T00:25:55.611Z,4.70
2018-05-23T00:28:25.270Z,5.00
2018-05-23T00:30:55.677Z,4.23
2018-05-23T00:33:25.313Z,5.13
2018-05-23T00:35:54.969Z,4.43
2018-05-23T00:38:24.640Z,4.83
2018-05-23T00:40:54.273Z,5.70
2018-05-23T00:43:23.967Z,4.40
2018-05-23T00:45:53.682Z,4.50
2018-05-23T00:48:23.318Z,3.77
2018-05-23T00:50:53.007Z,5.40
2018-05-23T00:53:22.732Z,5.13
2018-05-23T00:55:52.427Z,5.03
2018-05-23T00:58:22.173Z,5.30
2018-05-23T01:00:52.722Z,4.60
2018-05-23T01:03:22.510Z,5.20
2018-05-23T01:05:53.055Z,4.90
2018-05-23T01:08:23.670Z,5.00
2018-05-23T01:10:54.285Z,4.30
2018-05-23T01:13:24.018Z,4.70
2018-05-23T01:15:54.513Z,4.43
2018-05-23T01:18:24.176Z,5.40
2018-05-23T01:20:53.905Z,5.10
2018-05-23T01:23:23.542Z,4.87
2018-05-23T01:25:53.236Z,5.07
2018-05-23T01:28:22.961Z,4.17
2018-05-23T01:30:52.689Z,4.67
2018-05-23T01:33:22.516Z,5.03
2018-05-23T01:35:52.952Z,4.40
2018-05-23T01:38:23.389Z,5.00
2018-05-23T01:40:53.097Z,4.27
2018-05-23T01:43:22.743Z,4.27
2018-05-23T01:45:52.393Z,3.67
2018-05-23T01:48:22.837Z,4.30
2018-05-23T01:50:54.179Z,4.63
2018-05-23T01:53:24.604Z,3.77
2018-05-23T01:55:55.076Z,3.93
2018-05-23T01:58:24.766Z,3.57
2018-05-23T02:00:54.508Z,4.60
2018-05-23T02:03:24.179Z,3.40
2018-05-23T02:05:53.853Z,3.70
2018-05-23T02:08:24.295Z,3.57
2018-05-23T02:10:54.775Z,3.37
2018-05-23T02:13:24.443Z,3.63
2018-05-23T02:15:54.096Z,3.90
2018-05-23T02:18:23.747Z,3.77
2018-05-23T02:20:54.176Z,3.50
2018-05-23T02:23:24.628Z,3.50
2018-05-23T02:25:54.299Z,3.93
2018-05-23T02:28:24.033Z,3.43
2018-05-23T02:30:53.751Z,3.07
2018-05-23T02:33:23.485Z,2.73
2018-05-23T02:35:53.186Z,3.60
2018-05-23T02:38:22.843Z,3.60
2018-05-23T02:40:52.502Z,4.10
2018-05-23T02:43:22.162Z,3.67
2018-05-23T02:45:51.954Z,3.70
2018-05-23T02:48:21.645Z,3.50
2018-05-23T02:50:51.287Z,4.60
2018-05-23T02:53:20.935Z,3.80
2018-05-23T02:55:50.577Z,3.93
2018-05-23T02:58:20.265Z,3.20
2018-05-23T03:00:50.898Z,3.03
2018-05-23T03:03:20.764Z,3.57
2018-05-23T03:05:51.235Z,3.30
2018-05-23T03:08:20.891Z,3.80
2018-05-23T03:10:51.375Z,3.23
2018-05-23T03:13:21.936Z,3.60
2018-05-23T03:15:51.605Z,3.80
2018-05-23T03:18:21.356Z,3.40
2018-05-23T03:20:51.023Z,3.80
2018-05-23T03:23:20.898Z,3.30
2018-05-23T03:25:51.456Z,3.50
2018-05-23T03:28:21.292Z,3.00
2018-05-23T03:30:50.996Z,3.57
2018-05-23T03:33:20.858Z,3.40
2018-05-23T03:35:51.368Z,3.20
2018-05-23T03:38:21.176Z,4.03
2018-05-23T03:40:50.983Z,4.20
2018-05-23T03:43:20.659Z,4.90
2018-05-23T03:45:50.363Z,4.10
2018-05-23T03:48:20.101Z,3.70
2018-05-23T03:50:49.742Z,4.50
2018-05-23T03:53:19.385Z,4.20
2018-05-23T03:55:49.148Z,4.20
2018-05-23T03:58:20.162Z,4.50
2018-05-23T04:01:01.001Z,4.00
2018-05-23T04:03:43.227Z,3.80
2018-05-23T04:06:39.121Z,4.83
2018-05-23T04:09:09.713Z,4.33
2018-05-23T04:11:39.540Z,4.10
2018-05-23T04:14:09.293Z,3.70
2018-05-23T04:16:38.993Z,3.33
2018-05-23T04:19:08.650Z,3.80
2018-05-23T04:21:38.446Z,3.70
2018-05-23T04:24:08.311Z,4.10
2018-05-23T04:26:38.192Z,4.00
2018-05-23T04:29:08.002Z,3.70
2018-05-23T04:31:37.677Z,4.00
2018-05-23T04:34:07.355Z,4.10
2018-05-23T04:36:37.839Z,4.53
2018-05-23T04:39:08.052Z,4.57
2018-05-23T04:41:37.706Z,4.07
2018-05-23T04:44:08.960Z,4.67
2018-05-23T04:46:39.589Z,4.60
2018-05-23T04:49:09.305Z,3.97
2018-05-23T04:51:39.062Z,4.10
2018-05-23T04:54:08.741Z,4.30
2018-05-23T04:56:38.476Z,4.40
2018-05-23T04:59:08.260Z,4.53
2018-05-23T05:01:38.100Z,4.43
2018-05-23T05:04:07.928Z,4.63
2018-05-23T05:06:37.986Z,5.00
2018-05-23T05:09:07.969Z,4.73
2018-05-23T05:11:37.861Z,4.83
2018-05-23T05:14:07.738Z,4.90
2018-05-23T05:16:37.499Z,5.20
2018-05-23T05:19:07.565Z,5.77
2018-05-23T05:21:37.322Z,5.40
2018-05-23T05:24:07.600Z,5.53
2018-05-23T05:26:38.428Z,5.10
2018-05-23T05:29:08.350Z,5.73
2018-05-23T05:31:38.937Z,5.80
2018-05-23T05:34:09.422Z,6.20
2018-05-23T05:36:39.100Z,6.10
2018-05-23T05:39:09.569Z,7.03
2018-05-23T05:41:39.365Z,6.60
2018-05-23T05:44:09.077Z,6.60
2018-05-23T05:46:38.927Z,8.07
2018-05-23T05:49:09.488Z,8.10
2018-05-23T05:51:39.209Z,8.80
2018-05-23T05:54:09.232Z,6.47
2018-05-23T05:56:39.055Z,6.60
2018-05-23T05:59:08.697Z,7.63
2018-05-23T06:01:38.475Z,6.53
2018-05-23T06:04:08.271Z,7.60
2018-05-23T06:06:37.976Z,7.57
2018-05-23T06:09:08.607Z,6.80
2018-05-23T06:11:39.153Z,7.10
2018-05-23T06:14:08.938Z,7.07
2018-05-23T06:16:39.402Z,5.40
2018-05-23T06:19:09.193Z,6.97
2018-05-23T06:21:39.613Z,7.60
2018-05-23T06:24:10.168Z,8.13
2018-05-23T06:26:39.849Z,8.67
2018-05-23T06:29:10.402Z,7.40
2018-05-23T06:31:40.614Z,6.70
2018-05-23T06:34:10.802Z,7.67
2018-05-23T06:36:40.530Z,5.90
2018-05-23T06:39:11.368Z,5.30
2018-05-23T06:41:41.034Z,6.20
2018-05-23T06:44:11.074Z,8.20
2018-05-23T06:46:40.747Z,7.00
2018-05-23T06:49:10.430Z,6.50
2018-05-23T06:51:40.832Z,7.83
2018-05-23T06:54:11.377Z,5.87
2018-05-23T06:56:41.920Z,8.23
2018-05-23T06:59:11.578Z,6.70
2018-05-23T07:01:41.662Z,6.40
2018-05-23T07:04:12.185Z,5.87
2018-05-23T07:06:42.198Z,6.50
2018-05-23T07:09:11.869Z,6.77
2018-05-23T07:11:41.745Z,7.60
2018-05-23T07:14:11.437Z,6.37
2018-05-23T07:16:41.245Z,7.20
2018-05-23T07:19:10.891Z,7.73
2018-05-23T07:21:40.922Z,7.70
2018-05-23T07:24:10.645Z,7.30
2018-05-23T07:26:41.390Z,7.60
2018-05-23T07:29:11.247Z,7.47
2018-05-23T07:31:41.056Z,7.10
2018-05-23T07:34:10.935Z,8.33
2018-05-23T07:36:41.577Z,9.43
2018-05-23T07:39:11.776Z,9.57
2018-05-23T07:41:41.603Z,9.33
2018-05-23T07:44:11.681Z,9.57
2018-05-23T07:46:41.437Z,9.63
2018-05-23T07:49:11.191Z,9.17
2018-05-23T07:51:41.045Z,9.93
2018-05-23T07:54:11.585Z,9.77
2018-05-23T07:56:41.758Z,9.40
2018-05-23T07:59:11.607Z,9.57
2018-05-23T08:01:42.192Z,9.40
2018-05-23T08:04:12.247Z,8.90
2018-05-23T08:06:42.695Z,9.50
2018-05-23T08:09:12.339Z,9.37
2018-05-23T08:11:42.147Z,9.47
2018-05-23T08:14:12.686Z,9.97
2018-05-23T08:16:42.648Z,9.20
2018-05-23T08:19:12.531Z,8.87
2018-05-23T08:21:42.383Z,8.50
2018-05-23T08:24:12.255Z,8.90
2018-05-23T08:26:41.951Z,9.60
2018-05-23T08:29:11.752Z,9.87
2018-05-23T08:31:41.473Z,12.20
2018-05-23T08:34:11.161Z,12.70
2018-05-23T08:36:40.981Z,14.40
2018-05-23T08:39:10.706Z,13.50
2018-05-23T08:41:40.813Z,13.63
2018-05-23T08:44:10.749Z,13.30
2018-05-23T08:46:41.264Z,13.20
2018-05-23T08:49:11.116Z,10.53
2018-05-23T08:51:41.563Z,10.93
2018-05-23T08:54:11.222Z,10.13
2018-05-23T08:56:41.064Z,9.60
2018-05-23T08:59:11.648Z,9.90
2018-05-23T09:01:42.125Z,8.47
2018-05-23T09:04:12.785Z,9.10
2018-05-23T09:06:42.707Z,9.10
2018-05-23T09:09:12.406Z,7.50
2018-05-23T09:11:43.115Z,8.30
2018-05-23T09:14:13.579Z,8.17
2018-05-23T09:16:43.310Z,8.23
2018-05-23T09:19:12.980Z,9.13
2018-05-23T09:21:42.881Z,7.80
2018-05-23T09:24:13.457Z,7.67
2018-05-23T09:26:43.202Z,7.97
2018-05-23T09:29:13.794Z,7.13
2018-05-23T09:31:43.475Z,7.77
2018-05-23T09:34:13.165Z,7.63
2018-05-23T09:36:43.820Z,7.60
2018-05-23T09:39:14.547Z,7.73
2018-05-23T09:41:45.568Z,7.60
2018-05-23T09:44:17.401Z,8.00
2018-05-23T09:46:48.053Z,7.87
2018-05-23T09:49:17.853Z,6.60
2018-05-23T09:51:47.881Z,7.30
2018-05-23T09:54:18.595Z,7.07
2018-05-23T09:56:49.266Z,5.73
2018-05-23T09:59:20.613Z,3.80
2018-05-23T10:01:52.994Z,3.07
2018-05-23T10:04:23.774Z,3.90
2018-05-23T10:06:54.457Z,2.27
2018-05-23T10:09:25.122Z,2.70
2018-05-23T10:11:55.876Z,1.73
2018-05-23T10:14:26.602Z,3.07
2018-05-23T10:16:56.646Z,4.03
2018-05-23T10:19:29.104Z,2.40
2018-05-23T10:22:00.143Z,1.57
2018-05-23T10:24:30.779Z,1.50
2018-05-23T10:27:00.706Z,1.20
2018-05-23T10:29:32.382Z,1.50
2018-05-23T10:32:03.111Z,1.40
2018-05-23T10:34:34.785Z,1.77
2018-05-23T10:37:05.739Z,1.27
2018-05-23T10:39:35.995Z,1.30
2018-05-23T10:42:06.080Z,1.77
2018-05-23T10:44:35.881Z,1.60
2018-05-23T10:47:05.804Z,2.10
2018-05-23T10:49:37.968Z,1.63
2018-05-23T10:52:09.708Z,1.43
2018-05-23T10:54:40.483Z,2.10
2018-05-23T10:57:10.659Z,2.13
2018-05-23T10:59:42.058Z,2.27
2018-05-23T11:02:14.483Z,3.10
2018-05-23T11:04:45.094Z,3.30
2018-05-23T11:07:19.197Z,5.00
2018-05-23T11:09:53.482Z,4.17
2018-05-23T11:12:23.395Z,3.57
2018-05-23T11:14:53.366Z,2.33
2018-05-23T11:17:26.487Z,2.17
2018-05-23T11:19:59.426Z,2.53
2018-05-23T11:22:29.408Z,3.30
2018-05-23T11:25:00.119Z,3.00
2018-05-23T11:27:30.841Z,3.57
2018-05-23T11:30:06.187Z,4.03
2018-05-23T11:32:37.196Z,4.47
2018-05-23T11:35:07.749Z,5.47
2018-05-23T11:37:37.500Z,5.60
2018-05-23T11:40:07.450Z,6.23
2018-05-23T11:42:37.544Z,6.20
2018-05-23T11:45:07.517Z,7.30
2018-05-23T11:47:38.062Z,5.73
2018-05-23T11:50:09.529Z,6.23
2018-05-23T11:52:41.233Z,5.17
2018-05-23T11:55:15.956Z,5.20
2018-05-23T11:57:51.101Z,5.20
2018-05-23T12:00:23.422Z,5.93
2018-05-23T12:02:53.942Z,6.00
2018-05-23T12:05:26.020Z,6.00
2018-05-23T12:07:56.799Z,5.60
2018-05-23T12:10:28.780Z,6.33
2018-05-23T12:13:01.541Z,6.37
2018-05-23T12:15:34.068Z,5.57
2018-05-23T12:18:04.046Z,5.60
2018-05-23T12:20:35.547Z,5.50
2018-05-23T12:23:06.338Z,5.97
2018-05-23T12:25:37.619Z,7.13
2018-05-23T12:28:10.657Z,5.90
2018-05-23T12:30:42.757Z,7.07
2018-05-23T12:33:12.754Z,7.30
2018-05-23T12:35:45.664Z,6.97
2018-05-23T12:38:19.783Z,7.50
2018-05-23T12:40:50.907Z,9.30
2018-05-23T12:43:29.853Z,7.70
2018-05-23T12:46:02.402Z,7.80
2018-05-23T12:48:33.081Z,7.30
2018-05-23T12:51:03.836Z,8.27
2018-05-23T12:53:33.866Z,8.30
2018-05-23T12:56:05.791Z,8.03
2018-05-23T12:58:36.481Z,8.83
2018-05-23T13:01:08.279Z,8.27
2018-05-23T13:03:41.875Z,7.57
2018-05-23T13:06:12.084Z,7.50
2018-05-23T13:08:44.151Z,8.87
2018-05-23T13:11:15.864Z,9.07
2018-05-23T13:13:46.466Z,9.10
2018-05-23T13:16:18.636Z,9.77
2018-05-23T13:18:53.240Z,10.20
2018-05-23T13:21:24.307Z,9.23
2018-05-23T13:23:56.098Z,9.07
2018-05-23T13:26:28.281Z,10.40
2018-05-23T13:28:59.295Z,10.13
2018-05-23T13:31:30.337Z,10.37
2018-05-23T13:34:02.235Z,10.83
2018-05-23T13:36:36.029Z,9.40
2018-05-23T13:39:06.367Z,10.33
2018-05-23T13:41:37.184Z,8.90
2018-05-23T13:44:11.874Z,11.17
2018-05-23T13:46:43.943Z,11.70
2018-05-23T13:49:15.544Z,11.83
2018-05-23T13:51:46.926Z,11.00
2018-05-23T13:54:18.610Z,10.87
2018-05-23T13:56:50.163Z,10.37
2018-05-23T13:59:22.541Z,11.70
2018-05-23T14:01:55.048Z,11.17
2018-05-23T14:04:25.066Z,12.13
2018-05-23T14:06:55.047Z,10.93
2018-05-23T14:09:26.709Z,10.63
2018-05-23T14:11:59.940Z,11.30
2018-05-23T14:14:30.587Z,10.93
2018-05-23T14:17:01.608Z,12.70
2018-05-23T14:19:35.597Z,10.83
2018-05-23T14:22:06.528Z,11.30
2018-05-23T14:24:39.111Z,11.73
2018-05-23T14:27:10.959Z,12.70
2018-05-23T14:29:42.249Z,12.50
2018-05-23T14:32:13.180Z,13.30
2018-05-23T14:34:44.543Z,12.60
2018-05-23T14:37:14.509Z,13.60
2018-05-23T14:39:46.754Z,12.20
2018-05-23T14:42:18.279Z,11.50
2018-05-23T14:44:50.407Z,13.07
2018-05-23T14:47:21.355Z,13.57
2018-05-23T14:49:53.453Z,11.37
2018-05-23T14:52:24.637Z,13.13
2018-05-23T14:54:57.166Z,13.63
2018-05-23T14:57:28.502Z,13.60
2018-05-23T14:59:59.717Z,13.50
2018-05-23T15:02:30.243Z,12.10
2018-05-23T15:05:01.338Z,13.67
2018-05-23T15:07:31.519Z,14.87
2018-05-23T15:10:01.963Z,14.10
2018-05-23T15:12:32.962Z,14.30
2018-05-23T15:15:04.113Z,13.37
2018-05-23T15:17:35.558Z,14.40
2018-05-23T15:20:07.238Z,15.40
2018-05-23T15:22:41.157Z,15.20
2018-05-23T15:25:12.174Z,15.67
2018-05-23T15:27:43.087Z,16.83
2018-05-23T15:30:17.241Z,17.50
2018-05-23T15:32:49.823Z,16.37
2018-05-23T15:35:22.088Z,16.70
2018-05-23T15:37:53.729Z,18.40
2018-05-23T15:40:26.075Z,17.20
2018-05-23T15:42:57.695Z,17.60
2018-05-23T15:45:33.308Z,18.83
2018-05-23T15:48:04.119Z,17.33
2018-05-23T15:50:36.173Z,16.00
2018-05-23T15:53:08.041Z,17.77
2018-05-23T15:55:39.126Z,16.30
2018-05-23T15:58:10.903Z,16.90
2018-05-23T16:00:42.788Z,16.30
2018-05-23T16:03:16.884Z,14.90
2018-05-23T16:05:47.438Z,16.03
2018-05-23T16:08:18.782Z,14.93
2018-05-23T16:10:49.639Z,13.57
2018-05-23T16:13:21.542Z,15.50
2018-05-23T16:15:52.319Z,16.53
2018-05-23T16:18:24.264Z,15.23
2018-05-23T16:20:55.026Z,15.80
2018-05-23T16:23:25.541Z,15.07
2018-05-23T16:25:55.828Z,15.10
2018-05-23T16:28:26.719Z,15.73
2018-05-23T16:30:56.920Z,14.80
2018-05-23T16:33:27.898Z,15.40
2018-05-23T16:35:57.647Z,16.10
2018-05-23T16:38:27.839Z,17.10
2018-05-23T16:40:58.586Z,14.60
2018-05-23T16:43:29.170Z,16.50
2018-05-23T16:45:59.070Z,15.07
2018-05-23T16:48:31.683Z,15.37
2018-05-23T16:51:01.460Z,16.50
2018-05-23T16:53:32.190Z,15.60
2018-05-23T16:56:03.088Z,15.37
2018-05-23T16:58:33.021Z,14.77
2018-05-23T17:01:03.286Z,15.10
2018-05-23T17:03:33.140Z,15.03
2018-05-23T17:06:02.935Z,16.13
2018-05-23T17:08:32.773Z,14.30
2018-05-23T17:11:03.406Z,14.70
2018-05-23T17:13:34.453Z,13.97
2018-05-23T17:16:04.304Z,15.20
2018-05-23T17:18:35.141Z,14.67
2018-05-23T17:21:05.180Z,14.17
2018-05-23T17:23:35.085Z,13.63
2018-05-23T17:26:05.954Z,14.47
2018-05-23T17:28:36.586Z,14.67
2018-05-23T17:31:06.663Z,15.37
2018-05-23T17:33:37.501Z,15.60
2018-05-23T17:36:08.128Z,15.70
2018-05-23T17:38:38.784Z,16.50
2018-05-23T17:41:08.675Z,15.83
2018-05-23T17:43:38.778Z,16.37
2018-05-23T17:46:09.636Z,15.60
2018-05-23T17:48:40.463Z,15.20
2018-05-23T17:51:10.229Z,16.87
2018-05-23T17:53:40.052Z,15.20
2018-05-23T17:56:09.862Z,17.57
2018-05-23T17:58:39.657Z,16.57
2018-05-23T18:01:09.443Z,16.03
2018-05-23T18:03:39.221Z,14.10
2018-05-23T18:06:09.868Z,18.10
2018-05-23T18:08:39.750Z,16.80
2018-05-23T18:11:09.550Z,18.40
2018-05-23T18:13:39.325Z,17.40
2018-05-23T18:16:09.117Z,16.30
2018-05-23T18:18:38.925Z,16.50
2018-05-23T18:21:08.709Z,16.77
2018-05-23T18:23:38.563Z,16.73
2018-05-23T18:26:08.489Z,16.53
2018-05-23T18:28:38.276Z,17.20
2018-05-23T18:31:08.060Z,17.17
2018-05-23T18:33:37.924Z,16.60
2018-05-23T18:36:07.718Z,16.37
2018-05-23T18:38:37.520Z,16.43
2018-05-23T18:41:08.062Z,18.00
2018-05-23T18:43:37.847Z,17.50
2018-05-23T18:46:08.424Z,16.43
2018-05-23T18:48:44.424Z,16.87
2018-05-23T18:51:14.189Z,15.53
2018-05-23T18:53:43.966Z,16.40
2018-05-23T18:56:14.509Z,16.50
2018-05-23T18:58:44.279Z,17.10
2018-05-23T19:01:14.282Z,17.83
2018-05-23T19:03:44.070Z,17.13
2018-05-23T19:06:13.893Z,15.27
2018-05-23T19:08:43.692Z,16.80
2018-05-23T19:11:13.468Z,18.23
2018-05-23T19:13:44.078Z,16.63
2018-05-23T19:16:14.621Z,17.00
2018-05-23T19:18:45.162Z,16.60
2018-05-23T19:21:15.752Z,16.70
2018-05-23T19:23:45.522Z,16.70
2018-05-23T19:26:15.292Z,18.90
2018-05-23T19:28:45.065Z,17.67
2018-05-23T19:31:14.860Z,17.20
2018-05-23T19:33:44.643Z,18.30
2018-05-23T19:36:15.276Z,18.00
2018-05-23T19:38:45.814Z,19.00
2018-05-23T19:41:15.670Z,17.67
2018-05-23T19:43:45.496Z,18.10
2018-05-23T19:46:15.260Z,17.70
2018-05-23T19:48:45.049Z,17.87
2018-05-23T19:51:15.610Z,18.40
2018-05-23T19:53:45.404Z,21.00
2018-05-23T19:56:15.164Z,19.93
2018-05-23T19:58:44.954Z,19.17
2018-05-23T20:01:14.736Z,20.70
2018-05-23T20:03:44.690Z,19.43
2018-05-23T20:06:14.467Z,20.70
2018-05-23T20:08:44.287Z,20.50
2018-05-23T20:11:13.968Z,20.17
2018-05-23T20:13:44.651Z,21.67
2018-05-23T20:16:14.351Z,21.87
2018-05-23T20:18:44.006Z,21.23
2018-05-23T20:21:13.850Z,20.43
2018-05-23T20:23:43.694Z,20.73
2018-05-23T20:26:13.483Z,20.37
2018-05-23T20:28:43.275Z,21.07
2018-05-23T20:31:13.692Z,18.40
2018-05-23T20:33:43.407Z,20.77
2018-05-23T20:36:13.832Z,20.73
2018-05-23T20:38:44.300Z,20.57
2018-05-23T20:41:13.998Z,20.77
2018-05-23T20:43:43.821Z,22.03
2018-05-23T20:46:14.302Z,21.67
2018-05-23T20:48:43.949Z,20.40
2018-05-23T20:51:13.764Z,18.47
2018-05-23T20:53:43.534Z,20.93
2018-05-23T20:56:13.187Z,20.37
2018-05-23T20:58:42.947Z,19.60
2018-05-23T21:01:13.482Z,20.30
2018-05-23T21:03:43.155Z,20.33
2018-05-23T21:06:13.582Z,20.60
2018-05-23T21:08:43.960Z,20.80
2018-05-23T21:11:14.512Z,21.40
2018-05-23T21:13:44.192Z,22.33
2018-05-23T21:16:14.726Z,20.47
2018-05-23T21:18:45.290Z,20.63
2018-05-23T21:21:15.087Z,23.13
2018-05-23T21:23:44.709Z,22.17
2018-05-23T21:26:14.408Z,21.77
2018-05-23T21:28:44.106Z,22.50
2018-05-23T21:31:13.749Z,21.30
2018-05-23T21:33:43.404Z,22.67
2018-05-23T21:36:13.837Z,21.97
2018-05-23T21:38:44.261Z,24.37
2018-05-23T21:41:14.691Z,23.63
2018-05-23T21:43:46.108Z,23.30
2018-05-23T21:46:15.901Z,23.10
2018-05-23T21:48:46.965Z,22.57
2018-05-23T21:51:16.757Z,22.03
2018-05-23T21:53:46.546Z,23.87
2018-05-23T21:56:16.223Z,21.83
2018-05-23T21:58:46.776Z,21.87
2018-05-23T22:01:16.554Z,23.20
2018-05-23T22:03:47.103Z,22.00
2018-05-23T22:06:17.661Z,22.67
2018-05-23T22:08:47.326Z,23.30
2018-05-23T22:11:17.857Z,21.40
2018-05-23T22:13:48.300Z,23.70
2018-05-23T22:16:18.084Z,24.27
2018-05-23T22:18:48.646Z,23.47
2018-05-23T22:21:18.342Z,23.53
2018-05-23T22:23:49.240Z,21.50
2018-05-23T22:26:19.017Z,23.00
2018-05-23T22:28:48.792Z,22.80
2018-05-23T22:31:19.232Z,22.13
2018-05-23T22:33:49.861Z,22.60
2018-05-23T22:36:20.278Z,22.43
2018-05-23T22:38:50.725Z,22.07
2018-05-23T22:41:20.478Z,20.70
2018-05-23T22:43:50.141Z,22.17
2018-05-23T22:46:19.816Z,21.57
2018-05-23T22:48:49.587Z,20.77
2018-05-23T22:51:19.506Z,22.17
2018-05-23T22:53:49.340Z,21.60
2018-05-23T22:56:19.174Z,19.63
2018-05-23T22:58:49.634Z,21.60
2018-05-23T23:01:23.295Z,20.58
2018-05-23T23:03:53.078Z,22.10
2018-05-23T23:06:22.761Z,20.30
2018-05-23T23:08:52.458Z,22.10
2018-05-23T23:11:22.097Z,20.53
2018-05-23T23:13:51.734Z,20.80
2018-05-23T23:16:21.379Z,20.43
2018-05-23T23:18:52.751Z,19.70
2018-05-23T23:21:22.586Z,21.57
2018-05-23T23:23:52.218Z,20.23
2018-05-23T23:26:22.015Z,20.07
2018-05-23T23:28:51.678Z,20.00
2018-05-23T23:31:21.438Z,20.70
2018-05-23T23:33:51.086Z,19.60
2018-05-23T23:36:21.465Z,20.03
2018-05-23T23:38:51.082Z,19.87
2018-05-23T23:41:20.892Z,19.80
2018-05-23T23:43:50.698Z,19.50
2018-05-23T23:46:20.376Z,15.90
2018-05-23T23:48:50.044Z,16.33
2018-05-23T23:51:20.472Z,15.33
2018-05-23T23:53:51.077Z,13.63
2018-05-23T23:56:20.884Z,13.37
2018-05-23T23:58:50.743Z,13.67
